Time;durP1;ratioP1;P1;durP2;ratioP2;P2;SDS_P1;SDS_P2;PMS_P1;PMS_P2;Temp;Humidity;BMP_temperature;BMP_pressure;BME280_temperature;BME280_humidity;BME280_pressure;Samples;Min_cycle;Max_cycle;Signal;HPM_P1;HPM_P2
2024/03/19 00:04:24;;;;;;;75.07;3.03;;;;;;;8.55;67.43;100112.41;10431789;28;20118;-61
2024/03/19 00:09:25;;;;;;;8.48;1.77;;;;;;;8.42;67.77;100123.50;10412721;28;20120;-60
2024/03/19 00:14:26;;;;;;;24.90;3.08;;;;;;;8.38;67.54;100122.81;10414936;28;20124;-60
2024/03/19 00:19:27;;;;;;;37.05;1.83;;;;;;;8.50;67.54;100126.56;10430877;28;20087;-61
2024/03/19 00:24:28;;;;;;;5.88;1.95;;;;;;;8.43;67.36;100119.97;10415081;28;20501;-60
2024/03/19 00:29:30;;;;;;;27.88;3.15;;;;;;;8.33;67.43;100118.72;10431027;28;20049;-60
2024/03/19 00:34:31;;;;;;;9.43;1.55;;;;;;;8.36;67.36;100123.78;10431492;28;20081;-60
2024/03/19 00:39:33;;;;;;;63.92;2.83;;;;;;;8.30;67.45;100130.16;10435775;28;20045;-59
2024/03/19 00:44:34;;;;;;;36.95;2.53;;;;;;;8.24;67.43;100129.59;10438990;28;20124;-60
2024/03/19 00:49:35;;;;;;;78.53;2.75;;;;;;;8.21;67.70;100129.72;10438758;28;20485;-60
2024/03/19 00:54:36;;;;;;;12.63;2.47;;;;;;;8.27;67.53;100124.22;10438374;28;20044;-60
2024/03/19 00:59:38;;;;;;;146.57;6.10;;;;;;;8.33;67.54;100124.78;10438064;28;20130;-60
2024/03/19 01:04:39;;;;;;;19.75;2.45;;;;;;;8.36;67.12;100127.25;10438596;28;20516;-60
2024/03/19 01:09:40;;;;;;;79.63;3.03;;;;;;;8.32;67.15;100124.84;10421352;28;20139;-60
2024/03/19 01:14:41;;;;;;;5.95;1.50;;;;;;;8.24;67.24;100121.78;10438210;28;20104;-59
2024/03/19 01:19:42;;;;;;;71.70;3.00;;;;;;;8.12;67.20;100120.56;10421382;28;20037;-60
2024/03/19 01:24:43;;;;;;;45.35;2.65;;;;;;;8.03;67.27;100124.44;10437748;28;20492;-60
2024/03/19 01:29:44;;;;;;;62.08;2.60;;;;;;;8.11;67.08;100125.84;10436764;28;20128;-61
2024/03/19 01:34:45;;;;;;;54.63;3.63;;;;;;;8.16;67.02;100126.50;10437440;28;20069;-60
2024/03/19 01:39:46;;;;;;;84.97;3.65;;;;;;;8.08;66.97;100125.97;10436466;28;20044;-60
2024/03/19 01:44:49;;;;;;;13.15;2.50;;;;;;;8.02;67.06;100120.13;10419864;28;20052;-60
2024/03/19 01:49:51;;;;;;;44.90;2.60;;;;;;;8.02;66.84;100112.31;10419420;28;20045;-60
2024/03/19 01:54:52;;;;;;;16.85;1.83;;;;;;;7.99;66.80;100119.44;10403040;28;20120;-60
2024/03/19 01:59:53;;;;;;;21.02;1.95;;;;;;;8.04;67.00;100120.91;10418803;28;20120;-59
2024/03/19 02:04:54;;;;;;;34.15;2.35;;;;;;;8.09;66.66;100114.63;10436143;28;20139;-60
2024/03/19 02:09:56;;;;;;;86.68;4.03;;;;;;;8.06;66.80;100115.59;10402100;28;20045;-60
2024/03/19 02:14:57;;;;;;;34.05;2.00;;;;;;;8.04;66.66;100114.84;10418416;28;20442;-60
2024/03/19 02:19:58;;;;;;;24.08;2.00;;;;;;;7.92;66.74;100118.84;10435496;28;20088;-62
2024/03/19 02:24:59;;;;;;;148.20;4.80;;;;;;;7.64;66.77;100118.41;10434815;28;20139;-62
2024/03/19 02:30:00;;;;;;;34.30;2.17;;;;;;;7.64;67.38;100114.97;10434922;28;20122;-62
2024/03/19 02:35:01;;;;;;;81.07;3.80;;;;;;;7.62;67.16;100112.44;10434966;28;20079;-62
2024/03/19 02:40:05;;;;;;;180.82;6.60;;;;;;;7.60;67.22;100109.06;10417581;28;20076;-62
2024/03/19 02:45:06;;;;;;;15.35;2.05;;;;;;;7.56;67.40;100104.91;10434461;28;20053;-61
2024/03/19 02:50:07;;;;;;;9.80;1.95;;;;;;;7.57;67.41;100101.38;10417770;28;20045;-61
2024/03/19 02:55:08;;;;;;;34.13;3.05;;;;;;;7.62;67.13;100104.63;10433597;28;20056;-61
2024/03/19 03:00:10;;;;;;;58.35;3.15;;;;;;;7.81;67.02;100100.25;10416110;28;20053;-60
2024/03/19 03:05:11;;;;;;;79.38;4.85;;;;;;;7.93;66.92;100094.53;10433385;28;20148;-62
2024/03/19 03:10:12;;;;;;;17.15;2.90;;;;;;;8.02;66.67;100098.44;10433115;28;20091;-61
2024/03/19 03:15:13;;;;;;;16.60;2.55;;;;;;;7.94;66.33;100100.56;10465610;28;20167;-61
2024/03/19 03:20:15;;;;;;;33.92;2.90;;;;;;;7.79;66.58;100107.31;10449138;28;20104;-61
2024/03/19 03:25:16;;;;;;;9.63;2.17;;;;;;;7.81;66.83;100109.84;10432776;28;20107;-60
2024/03/19 03:30:17;;;;;;;46.15;3.03;;;;;;;7.71;66.51;100113.78;10432467;28;20069;-61
2024/03/19 03:35:19;;;;;;;56.13;4.70;;;;;;;7.64;66.93;100115.81;10416202;28;20041;-61
2024/03/19 03:40:22;;;;;;;57.13;4.40;;;;;;;7.62;67.01;100108.97;10465826;28;20048;-61
2024/03/19 03:45:23;;;;;;;90.25;4.38;;;;;;;7.74;66.72;100106.69;10432157;28;20072;-61
2024/03/19 03:50:24;;;;;;;61.92;3.17;;;;;;;7.69;66.76;100111.22;10415976;28;20480;-61
2024/03/19 03:55:25;;;;;;;66.20;3.53;;;;;;;7.72;66.86;100112.88;10431818;28;20048;-60
2024/03/19 04:00:29;;;;;;;8.20;2.50;;;;;;;7.80;66.78;100113.34;10431657;28;20045;-61
2024/03/19 04:05:30;;;;;;;57.53;3.65;;;;;;;7.75;66.48;100113.56;10415504;28;20077;-61
2024/03/19 04:10:31;;;;;;;57.47;3.17;;;;;;;7.51;66.76;100111.25;10414247;28;20509;-61
2024/03/19 04:15:32;;;;;;;18.80;2.80;;;;;;;7.39;66.81;100120.41;10414609;28;20154;-61
2024/03/19 04:20:33;;;;;;;79.18;4.10;;;;;;;7.44;66.83;100125.41;10430402;28;20148;-61
2024/03/19 04:25:35;;;;;;;31.40;2.65;;;;;;;7.31;66.75;100119.91;10447659;28;20131;-61
2024/03/19 04:30:36;;;;;;;14.00;2.53;;;;;;;7.15;66.65;100126.69;10431226;28;20079;-61
2024/03/19 04:35:38;;;;;;;22.67;3.83;;;;;;;7.15;67.08;100131.88;10415430;28;20052;-61
2024/03/19 04:40:39;;;;;;;4.75;2.17;;;;;;;7.36;67.01;100128.38;10414811;28;20048;-61
2024/03/19 04:45:40;;;;;;;4.43;2.08;;;;;;;7.45;66.76;100130.53;10431138;28;20665;-61
2024/03/19 04:50:41;;;;;;;60.83;3.40;;;;;;;7.49;66.99;100133.88;10430952;28;20085;-61
2024/03/19 04:55:42;;;;;;;46.72;3.13;;;;;;;7.56;66.96;100127.47;10430416;28;20052;-61
2024/03/19 05:00:43;;;;;;;45.40;2.92;;;;;;;7.20;66.46;100142.94;10414153;28;20153;-61
2024/03/19 05:05:44;;;;;;;51.03;3.50;;;;;;;7.01;67.06;100142.88;10430008;28;20103;-61
2024/03/19 05:10:45;;;;;;;129.68;4.57;;;;;;;7.02;66.79;100147.16;10414132;28;20571;-61
2024/03/19 05:15:46;;;;;;;25.90;2.75;;;;;;;7.08;67.39;100141.69;10430060;28;20049;-61
2024/03/19 05:20:48;;;;;;;57.88;3.65;;;;;;;7.18;66.96;100145.59;10381707;28;20072;-60
2024/03/19 05:25:49;;;;;;;8.80;3.00;;;;;;;7.34;67.00;100138.00;10421389;28;20063;-60
2024/03/19 05:30:50;;;;;;;67.72;4.53;;;;;;;7.37;66.65;100143.03;10437829;28;20033;-60
2024/03/19 05:35:51;;;;;;;18.58;3.00;;;;;;;7.32;66.81;100145.03;10470772;28;20040;-60
2024/03/19 05:40:52;;;;;;;76.78;4.85;;;;;;;7.47;66.78;100151.31;10436853;28;20076;-59
2024/03/19 05:45:55;;;;;;;32.45;2.78;;;;;;;7.52;67.11;100155.41;10437156;28;20846;-61
2024/03/19 05:50:58;;;;;;;29.35;2.97;;;;;;;7.72;66.59;100160.56;10420359;28;20040;-60
2024/03/19 05:56:01;;;;;;;21.20;2.60;;;;;;;7.66;66.64;100170.41;10419897;28;20072;-60
2024/03/19 06:01:05;;;;;;;35.90;3.10;;;;;;;7.71;66.55;100178.88;10435491;28;20068;-60
2024/03/19 06:06:09;;;;;;;65.95;3.95;;;;;;;7.71;66.38;100173.66;10436235;28;20140;-61
2024/03/19 06:11:11;;;;;;;6.68;2.55;;;;;;;7.62;66.57;100179.25;10466574;28;20110;-60
2024/03/19 06:16:12;;;;;;;31.42;3.03;;;;;;;7.69;66.70;100185.91;10435457;28;20128;-61
2024/03/19 06:21:13;;;;;;;22.05;3.65;;;;;;;7.69;66.78;100194.53;10436114;28;20077;-61
2024/03/19 06:26:14;;;;;;;30.40;3.22;;;;;;;7.73;66.85;100192.66;10435568;28;20390;-61
2024/03/19 06:31:15;;;;;;;48.03;3.97;;;;;;;7.80;66.52;100197.53;10435468;28;20063;-61
2024/03/19 06:36:17;;;;;;;25.50;2.85;;;;;;;7.75;66.42;100202.06;10401714;28;20083;-60
2024/03/19 06:41:18;;;;;;;84.03;5.60;;;;;;;7.69;66.59;100210.16;10418484;28;20036;-61
2024/03/19 06:46:19;;;;;;;13.60;3.13;;;;;;;7.70;66.52;100214.47;10451438;28;20152;-60
2024/03/19 06:51:21;;;;;;;20.40;3.67;;;;;;;7.75;66.44;100209.88;10433965;28;20538;-61
2024/03/19 06:56:22;;;;;;;36.67;3.58;;;;;;;7.76;66.28;100218.56;10417257;28;20985;-61
2024/03/19 07:01:23;;;;;;;53.97;3.75;;;;;;;7.66;66.73;100225.91;10417909;28;20068;-60
2024/03/19 07:06:24;;;;;;;36.30;3.97;;;;;;;7.61;66.72;100237.44;10417592;28;20067;-60
2024/03/19 07:11:25;;;;;;;56.53;4.80;;;;;;;7.57;66.80;100238.50;10416312;28;20052;-61
2024/03/19 07:16:26;;;;;;;6.13;3.25;;;;;;;7.63;67.08;100241.66;10417466;28;20040;-61
2024/03/19 07:21:27;;;;;;;4.95;3.20;;;;;;;7.87;66.93;100235.41;10416531;28;20041;-61
2024/03/19 07:26:28;;;;;;;5.10;2.72;;;;;;;8.09;66.34;100234.44;10416326;28;20052;-61
2024/03/19 07:31:29;;;;;;;6.03;3.30;;;;;;;8.16;65.97;100244.53;10432768;28;20045;-61
2024/03/19 07:36:30;;;;;;;5.20;2.83;;;;;;;8.01;65.95;100245.22;10432590;28;20084;-61
2024/03/19 07:41:32;;;;;;;5.35;3.05;;;;;;;7.99;65.87;100244.44;10416706;28;20053;-61
2024/03/19 07:46:33;;;;;;;7.63;3.30;;;;;;;8.26;65.88;100252.81;10431509;28;20164;-61
2024/03/19 07:51:34;;;;;;;15.02;4.47;;;;;;;8.36;65.41;100265.38;10431606;28;20509;-60
2024/03/19 07:56:35;;;;;;;7.63;3.70;;;;;;;8.23;65.69;100263.34;10415874;28;20094;-60
2024/03/19 08:01:37;;;;;;;5.70;2.80;;;;;;;8.13;66.02;100262.09;10416261;28;20473;-61
2024/03/19 08:06:38;;;;;;;9.32;4.30;;;;;;;8.47;65.70;100268.31;10425436;28;20239;-60
2024/03/19 08:11:39;;;;;;;7.15;3.20;;;;;;;8.37;65.66;100277.47;10427551;28;20080;-60
2024/03/19 08:16:40;;;;;;;6.97;3.50;;;;;;;8.64;65.51;100273.59;10427316;28;20106;-60
2024/03/19 08:21:41;;;;;;;5.63;3.33;;;;;;;8.56;65.21;100278.34;10410077;28;20047;-57
2024/03/19 08:26:44;;;;;;;25.02;4.57;;;;;;;8.42;65.16;100285.94;10426802;28;20056;-56
2024/03/19 08:31:45;;;;;;;7.43;3.60;;;;;;;8.35;65.48;100292.31;10394335;28;20075;-56
2024/03/19 08:36:46;;;;;;;5.70;2.97;;;;;;;8.54;65.34;100290.59;10426747;28;20485;-56
2024/03/19 08:41:47;;;;;;;8.90;3.80;;;;;;;8.71;64.85;100295.00;10410062;28;20132;-55
2024/03/19 08:46:49;;;;;;;13.55;4.40;;;;;;;8.69;64.89;100294.22;10424994;28;20041;-55
2024/03/19 08:51:51;;;;;;;6.53;3.35;;;;;;;8.56;65.21;100303.53;10419063;28;20064;-54
2024/03/19 08:56:52;;;;;;;6.07;3.13;;;;;;;8.55;65.29;100307.91;10413084;28;20130;-55
2024/03/19 09:01:53;;;;;;;6.35;3.35;;;;;;;8.81;65.16;100310.16;10430753;28;20048;-56
2024/03/19 09:06:54;;;;;;;28.88;4.68;;;;;;;9.05;64.57;100308.19;10463361;28;20060;-56
2024/03/19 09:11:56;;;;;;;8.02;4.40;;;;;;;9.29;64.77;100307.00;10432988;28;20053;-56
2024/03/19 09:16:59;;;;;;;8.93;4.07;;;;;;;9.52;64.04;100309.31;10427647;28;20071;-56
2024/03/19 09:22:00;;;;;;;8.73;3.92;;;;;;;9.63;64.30;100309.63;10410853;28;20132;-56
2024/03/19 09:27:03;;;;;;;10.40;4.32;;;;;;;9.69;63.30;100305.06;10426886;28;20128;-55
2024/03/19 09:32:04;;;;;;;7.72;4.05;;;;;;;9.52;64.16;100309.31;10430854;28;20057;-57
2024/03/19 09:37:05;;;;;;;7.40;3.90;;;;;;;9.57;64.21;100317.78;10467043;28;20123;-57
2024/03/19 09:42:18;;;;;;;28.05;4.30;;;;;;;9.53;64.24;100316.25;10429254;28;20106;-57
2024/03/19 09:47:22;;;;;;;8.23;3.70;;;;;;;9.72;63.92;100317.97;10415926;28;20140;-56
2024/03/19 09:52:24;;;;;;;6.82;3.92;;;;;;;9.64;64.11;100316.56;10432656;28;20044;-56
2024/03/19 09:57:26;;;;;;;7.35;3.70;;;;;;;9.84;63.72;100317.34;10415719;28;20079;-54
2024/03/19 10:02:27;;;;;;;7.40;3.58;;;;;;;10.12;63.15;100312.41;10431726;28;20568;-56
2024/03/19 10:07:28;;;;;;;9.15;4.68;;;;;;;9.91;63.22;100318.75;10415593;28;20055;-57
2024/03/19 10:12:31;;;;;;;11.25;4.57;;;;;;;9.82;63.44;100313.97;10430951;28;20055;-55
2024/03/19 10:17:32;;;;;;;10.18;4.47;;;;;;;10.00;63.37;100313.03;10415295;28;20128;-57
2024/03/19 10:22:33;;;;;;;10.68;4.97;;;;;;;10.48;63.27;100315.72;10425874;28;20132;-56
2024/03/19 10:27:34;;;;;;;9.60;4.55;;;;;;;10.97;62.22;100312.09;10461374;28;20614;-57
2024/03/19 10:32:37;;;;;;;8.00;4.30;;;;;;;11.07;62.03;100304.66;10428866;28;20331;-57
2024/03/19 10:37:38;;;;;;;8.52;4.25;;;;;;;11.14;62.03;100305.97;10447269;28;20124;-57
2024/03/19 10:42:42;;;;;;;12.07;5.22;;;;;;;11.42;62.01;100302.66;10411743;28;20567;-57
2024/03/19 10:47:49;;;;;;;8.23;4.55;;;;;;;11.81;61.31;100298.53;10430649;28;20138;-58
2024/03/19 10:52:58;;;;;;;9.80;4.93;;;;;;;11.93;59.96;100294.34;10429042;28;20494;-57
2024/03/19 10:58:04;;;;;;;9.95;5.32;;;;;;;11.68;60.27;100288.88;10430254;28;20568;-56
2024/03/19 11:03:05;;;;;;;8.35;4.50;;;;;;;11.38;60.79;100288.03;10429025;28;20040;-59
2024/03/19 11:08:10;;;;;;;8.90;4.00;;;;;;;11.48;60.67;100271.69;10413856;28;20064;-58
2024/03/19 11:13:16;;;;;;;9.70;5.30;;;;;;;12.07;60.58;100257.66;10411147;28;20106;-56
2024/03/19 11:18:18;;;;;;;8.93;4.22;;;;;;;12.54;59.69;100253.00;10411994;28;20079;-58
2024/03/19 11:23:27;;;;;;;11.10;4.72;;;;;;;12.77;59.19;100236.66;10394918;28;20081;-55
2024/03/19 11:28:34;;;;;;;8.35;4.53;;;;;;;12.76;58.92;100234.13;10428079;28;20049;-59
2024/03/19 11:33:40;;;;;;;13.13;6.05;;;;;;;12.46;59.47;100242.13;10444364;28;20051;-60
2024/03/19 11:38:41;;;;;;;9.52;4.93;;;;;;;12.60;59.02;100234.25;10428491;28;21139;-60
2024/03/19 12:39:46;;;;;;;11.63;4.45;;;;;;;14.42;56.87;100204.38;10385787;28;20052;-82
2024/03/19 12:44:50;;;;;;;8.77;4.63;;;;;;;14.49;55.09;100195.13;10395228;28;20049;-81
2024/03/19 12:49:51;;;;;;;10.00;5.40;;;;;;;14.71;55.75;100191.78;10391413;28;20053;-82
2024/03/19 12:54:52;;;;;;;10.25;4.22;;;;;;;14.88;55.38;100178.25;10403334;28;20556;-81
2024/03/19 12:59:53;;;;;;;6.22;3.58;;;;;;;14.86;54.46;100173.06;10387665;28;20132;-82
2024/03/19 13:04:55;;;;;;;7.65;4.20;;;;;;;15.23;54.42;100179.91;10388992;28;20120;-83
2024/03/19 13:09:56;;;;;;;7.82;3.85;;;;;;;15.33;53.37;100172.16;10407424;28;20144;-82
2024/03/19 13:14:57;;;;;;;6.28;3.25;;;;;;;15.31;53.16;100167.00;10426797;28;20568;-82
2024/03/19 13:19:58;;;;;;;7.18;3.50;;;;;;;15.29;53.01;100170.72;10410359;28;20136;-82
2024/03/19 13:24:59;;;;;;;6.65;3.17;;;;;;;15.55;50.26;100164.31;10389334;28;20053;-82
2024/03/19 13:30:03;;;;;;;5.45;2.97;;;;;;;15.78;51.00;100149.38;10397813;28;20112;-82
2024/03/19 13:35:05;;;;;;;6.07;3.17;;;;;;;15.93;50.48;100151.69;10410132;28;20061;-82
2024/03/19 13:40:08;;;;;;;4.45;2.42;;;;;;;15.81;49.51;100146.50;10385456;28;20165;-82
2024/03/19 13:45:11;;;;;;;4.47;1.90;;;;;;;16.19;48.28;100134.63;10415457;28;20132;-82
2024/03/19 13:50:14;;;;;;;5.47;2.85;;;;;;;16.36;48.42;100132.44;10405981;28;20885;-82
2024/03/19 13:55:15;;;;;;;5.43;2.65;;;;;;;16.45;47.84;100132.56;10379535;28;20049;-82
2024/03/19 14:00:17;;;;;;;3.65;1.95;;;;;;;16.61;47.39;100124.25;10393177;28;20463;-82
2024/03/19 14:05:21;;;;;;;3.58;1.52;;;;;;;16.46;45.42;100121.03;10410049;28;20521;-81
2024/03/19 14:10:22;;;;;;;4.63;1.85;;;;;;;16.40;46.02;100125.94;10403120;28;20148;-82
2024/03/19 14:15:25;;;;;;;6.30;1.98;;;;;;;16.34;46.31;100121.16;10381789;28;20141;-80
2024/03/19 14:20:26;;;;;;;3.78;1.30;;;;;;;16.31;45.09;100132.78;10382273;28;20414;-85
2024/03/19 14:25:27;;;;;;;4.95;1.80;;;;;;;16.44;46.11;100122.13;10397401;28;20041;-82
2024/03/19 14:30:29;;;;;;;3.83;2.25;;;;;;;16.46;46.51;100126.31;10392702;28;20132;-83
2024/03/19 14:35:30;;;;;;;3.78;2.03;;;;;;;16.55;46.33;100124.75;10378666;28;20057;-83
2024/03/19 14:40:32;;;;;;;3.70;1.90;;;;;;;16.65;47.01;100120.41;10378524;28;20196;-83
2024/03/19 14:45:33;;;;;;;3.40;1.98;;;;;;;16.88;47.05;100109.59;10393947;28;20053;-83
2024/03/19 14:51:00;;;;;;;4.85;1.80;;;;;;;16.87;44.04;100104.44;10379312;28;20057;-83
2024/03/19 14:56:01;;;;;;;4.03;1.77;;;;;;;16.80;45.52;100106.75;10413253;28;20053;-83
2024/03/19 15:01:02;;;;;;;4.15;1.92;;;;;;;16.62;45.26;100105.63;10366814;28;20172;-82
2024/03/19 15:06:04;;;;;;;2.97;1.45;;;;;;;16.33;45.70;100115.03;10380440;28;20087;-83
2024/03/19 15:11:05;;;;;;;4.63;1.85;;;;;;;16.20;46.45;100109.09;10391650;28;20053;-82
2024/03/19 15:16:08;;;;;;;6.15;1.92;;;;;;;16.11;45.96;100121.19;10374738;28;20051;-82
2024/03/19 15:21:10;;;;;;;3.63;2.03;;;;;;;16.09;45.75;100119.63;10374606;28;20053;-82
2024/03/19 15:26:11;;;;;;;7.93;2.20;;;;;;;16.20;45.67;100123.09;10363690;28;20080;-83
2024/03/19 15:31:12;;;;;;;5.35;2.13;;;;;;;16.50;45.50;100122.47;10372852;28;20598;-83
2024/03/19 15:36:13;;;;;;;4.03;1.90;;;;;;;16.74;45.36;100124.91;10395995;28;20148;-82
2024/03/19 15:41:14;;;;;;;4.32;2.10;;;;;;;16.75;45.91;100134.53;10373820;28;20108;-82
2024/03/19 15:46:15;;;;;;;3.65;2.10;;;;;;;16.70;46.10;100136.69;10373355;28;20049;-82
2024/03/19 15:51:16;;;;;;;5.35;2.22;;;;;;;16.76;46.29;100122.97;10397344;28;20132;-82
2024/03/19 15:56:17;;;;;;;5.07;2.28;;;;;;;16.63;46.24;100111.75;10388805;28;20103;-82
2024/03/19 16:01:18;;;;;;;4.97;2.22;;;;;;;16.40;46.64;100095.13;10412729;28;20053;-82
2024/03/19 16:06:20;;;;;;;4.18;2.08;;;;;;;16.28;46.43;100097.91;10389609;28;20110;-84
2024/03/19 16:11:21;;;;;;;3.97;2.00;;;;;;;16.11;46.11;100094.81;10388246;28;20131;-83
2024/03/19 16:16:22;;;;;;;3.90;1.85;;;;;;;15.98;46.35;100104.66;10388713;28;20663;-84
2024/03/19 16:21:23;;;;;;;3.55;1.90;;;;;;;16.00;46.10;100112.44;10356606;28;20190;-83
2024/03/19 16:26:25;;;;;;;3.70;1.92;;;;;;;16.06;46.36;100114.63;10361559;28;20571;-84
2024/03/19 16:31:26;;;;;;;3.67;1.80;;;;;;;15.87;46.42;100125.78;10412278;28;20136;-83
2024/03/19 16:36:28;;;;;;;3.47;1.60;;;;;;;15.78;46.19;100123.84;10372365;28;20096;-83
2024/03/19 16:41:29;;;;;;;5.75;1.80;;;;;;;15.66;46.52;100127.44;10385602;28;20057;-84
2024/03/19 16:46:31;;;;;;;4.43;1.77;;;;;;;15.53;46.44;100126.69;10373145;28;20050;-83
2024/03/19 16:51:32;;;;;;;3.10;1.52;;;;;;;15.34;46.72;100132.53;10387619;28;20159;-84
2024/03/19 16:56:33;;;;;;;3.85;1.80;;;;;;;15.22;46.68;100145.78;10370138;28;20056;-83
2024/03/19 17:01:34;;;;;;;6.35;2.20;;;;;;;15.03;46.68;100138.44;10390737;28;20076;-84
2024/03/19 17:06:35;;;;;;;4.40;2.45;;;;;;;14.83;47.54;100146.13;10369767;28;20593;-83
2024/03/19 17:11:37;;;;;;;4.80;1.63;;;;;;;14.56;47.50;100165.63;10387979;28;20057;-84
2024/03/19 17:16:38;;;;;;;3.92;1.48;;;;;;;14.39;47.51;100162.50;10410795;28;20704;-83
2024/03/19 17:21:39;;;;;;;4.20;1.70;;;;;;;14.05;48.09;100169.28;10378333;28;20227;-83
2024/03/19 17:26:40;;;;;;;2.53;1.40;;;;;;;13.68;48.80;100168.38;10387389;28;20141;-84
2024/03/19 17:31:41;;;;;;;3.85;1.40;;;;;;;13.54;48.96;100170.25;10410388;28;20053;-83
2024/03/19 17:36:42;;;;;;;4.10;1.55;;;;;;;13.37;49.23;100181.06;10347940;28;20057;-82
2024/03/19 17:41:45;;;;;;;2.33;1.40;;;;;;;13.29;49.47;100180.72;10363048;28;20156;-82
2024/03/19 17:46:46;;;;;;;5.10;2.10;;;;;;;13.24;49.53;100193.31;10392620;28;20131;-82
2024/03/19 17:51:47;;;;;;;2.83;1.50;;;;;;;13.19;49.29;100188.38;10392005;28;20060;-82
2024/03/19 17:56:49;;;;;;;5.22;2.03;;;;;;;13.08;50.22;100187.41;10361846;28;20057;-82
2024/03/19 18:01:50;;;;;;;3.20;1.50;;;;;;;12.98;49.91;100183.69;10360519;28;20089;-82
2024/03/19 18:06:51;;;;;;;2.97;1.60;;;;;;;12.91;50.02;100191.13;10378805;28;20417;-83
2024/03/19 18:11:52;;;;;;;2.40;1.50;;;;;;;12.79;50.59;100199.78;10390429;28;20072;-83
2024/03/19 18:16:54;;;;;;;5.55;2.15;;;;;;;12.59;51.33;100206.34;10393085;28;20052;-83
2024/03/19 18:21:57;;;;;;;4.72;2.30;;;;;;;12.42;51.60;100219.66;10416248;28;20057;-83
2024/03/19 18:26:58;;;;;;;6.20;1.90;;;;;;;12.38;51.82;100220.78;10371876;28;20142;-82
2024/03/19 18:31:59;;;;;;;4.93;1.70;;;;;;;12.36;51.27;100227.06;10383083;28;20430;-83
2024/03/19 18:37:01;;;;;;;4.30;1.90;;;;;;;12.35;51.61;100228.00;10389589;28;20049;-82
2024/03/19 18:42:02;;;;;;;3.28;1.50;;;;;;;12.33;52.25;100225.50;10418263;28;20048;-82
2024/03/19 18:47:05;;;;;;;3.53;1.48;;;;;;;12.17;52.55;100229.97;10433506;28;20176;-83
2024/03/19 18:52:07;;;;;;;4.13;2.00;;;;;;;11.95;53.19;100230.41;10407362;28;20151;-83
2024/03/19 18:57:10;;;;;;;4.05;1.88;;;;;;;11.73;53.49;100240.50;10422361;28;20056;-83
2024/03/19 19:02:12;;;;;;;4.03;2.08;;;;;;;11.53;54.28;100242.63;10432877;28;20505;-83
2024/03/19 19:07:14;;;;;;;3.15;1.70;;;;;;;11.12;54.78;100240.63;10399607;28;20136;-83
2024/03/19 19:12:15;;;;;;;2.95;1.80;;;;;;;11.06;55.24;100246.22;10439360;28;20580;-82
2024/03/19 19:17:16;;;;;;;7.05;2.28;;;;;;;10.99;55.44;100250.06;10435249;28;20147;-82
2024/03/19 19:22:18;;;;;;;3.53;1.98;;;;;;;10.86;55.62;100251.69;10429796;28;20049;-83
2024/03/19 19:27:19;;;;;;;3.38;1.83;;;;;;;10.74;55.98;100259.38;10432448;28;20052;-82
2024/03/19 19:32:20;;;;;;;8.13;2.28;;;;;;;10.63;56.28;100265.19;10400600;28;20056;-82
2024/03/19 19:37:21;;;;;;;5.70;2.90;;;;;;;10.58;56.50;100267.22;10412073;28;20074;-82
2024/03/19 19:42:22;;;;;;;3.50;1.73;;;;;;;10.42;56.67;100271.56;10431612;28;20052;-82
2024/03/19 19:47:23;;;;;;;6.05;2.90;;;;;;;10.36;56.93;100275.34;10470034;28;20139;-81
2024/03/19 19:52:24;;;;;;;5.88;2.70;;;;;;;10.34;57.15;100273.75;10399008;28;20122;-82
2024/03/19 19:57:26;;;;;;;4.55;2.58;;;;;;;10.26;57.25;100265.47;10430037;28;20207;-82
2024/03/19 20:02:28;;;;;;;4.40;2.50;;;;;;;10.15;57.64;100270.44;10419831;28;20131;-82
2024/03/19 20:07:29;;;;;;;4.57;2.83;;;;;;;10.05;58.10;100262.25;10418499;28;20056;-82
2024/03/19 20:12:32;;;;;;;5.20;2.95;;;;;;;10.03;58.10;100263.25;10429674;28;20182;-82
2024/03/19 20:17:35;;;;;;;11.05;3.50;;;;;;;9.88;58.40;100274.47;10437043;28;20037;-82
2024/03/19 20:22:38;;;;;;;9.90;3.40;;;;;;;9.79;58.75;100285.41;10413004;28;20057;-82
2024/03/19 20:27:39;;;;;;;7.18;2.75;;;;;;;9.77;59.15;100287.25;10397312;28;20052;-82
2024/03/19 20:32:41;;;;;;;6.22;3.03;;;;;;;9.67;59.00;100286.84;10412607;28;20055;-82
2024/03/19 20:37:43;;;;;;;6.05;2.38;;;;;;;9.45;59.41;100281.84;10415043;28;20081;-82
2024/03/19 20:42:44;;;;;;;5.93;2.60;;;;;;;9.33;59.55;100289.41;10383664;28;20055;-81
2024/03/19 20:47:48;;;;;;;4.22;2.00;;;;;;;9.30;59.97;100295.63;10398793;28;20049;-82
2024/03/19 20:52:49;;;;;;;4.78;1.50;;;;;;;9.28;59.82;100296.63;10425728;28;20060;-82
2024/03/19 20:57:50;;;;;;;3.20;1.65;;;;;;;9.25;60.01;100287.19;10397554;28;20582;-82
2024/03/19 21:02:51;;;;;;;3.80;1.77;;;;;;;9.18;59.78;100283.16;10396472;28;20064;-82
2024/03/19 21:07:53;;;;;;;5.18;2.13;;;;;;;9.02;60.14;100283.97;10390104;28;20144;-82
2024/03/19 21:12:54;;;;;;;3.28;1.77;;;;;;;8.92;60.40;100280.13;10428313;28;20512;-82
2024/03/19 21:17:56;;;;;;;6.07;2.63;;;;;;;8.86;60.55;100276.03;10381068;28;20084;-81
2024/03/19 21:22:57;;;;;;;4.95;2.28;;;;;;;8.66;60.66;100278.75;10409125;28;20111;-81
2024/03/19 21:27:58;;;;;;;5.70;1.75;;;;;;;8.65;60.80;100282.25;10426246;28;20124;-81
2024/03/19 21:33:01;;;;;;;3.95;2.15;;;;;;;8.59;60.93;100288.59;10372360;28;20056;-82
2024/03/19 21:38:03;;;;;;;3.40;1.83;;;;;;;8.47;61.24;100283.94;10376995;28;20502;-82
2024/03/19 21:43:04;;;;;;;4.10;2.00;;;;;;;8.40;61.37;100279.94;10376246;28;20068;-82
2024/03/19 21:48:06;;;;;;;4.75;2.13;;;;;;;8.39;61.31;100282.59;10378761;28;20879;-82
2024/03/19 21:53:09;;;;;;;2.80;1.65;;;;;;;8.40;61.05;100279.94;10393534;28;20120;-82
2024/03/19 21:58:10;;;;;;;3.30;1.85;;;;;;;8.29;61.35;100283.94;10399634;28;20200;-82
2024/03/19 22:03:11;;;;;;;4.32;1.80;;;;;;;8.16;61.43;100288.84;10375386;28;20061;-82
2024/03/19 22:08:13;;;;;;;3.47;1.75;;;;;;;8.15;61.52;100291.50;10392462;28;20084;-82
2024/03/19 22:13:14;;;;;;;3.75;2.03;;;;;;;8.15;61.61;100287.16;10382558;28;20052;-82
2024/03/19 22:18:16;;;;;;;6.63;2.53;;;;;;;8.14;61.80;100285.44;10360387;28;20395;-82
2024/03/19 22:23:18;;;;;;;3.17;2.08;;;;;;;8.08;61.87;100280.47;10415446;28;20044;-82
2024/03/19 22:28:19;;;;;;;4.28;2.08;;;;;;;8.04;61.85;100291.94;10375027;28;21186;-82
2024/03/19 22:33:21;;;;;;;2.80;1.48;;;;;;;7.96;61.87;100284.47;10374295;28;20061;-82
2024/03/19 22:38:22;;;;;;;2.83;1.70;;;;;;;7.89;61.99;100282.22;10446466;28;20041;-82
2024/03/19 22:43:25;;;;;;;4.35;2.53;;;;;;;7.87;62.28;100284.03;10431972;28;20079;-82
2024/03/19 22:48:26;;;;;;;6.22;2.00;;;;;;;7.83;62.04;100278.09;10398678;28;20044;-82
2024/03/19 22:53:27;;;;;;;3.00;1.63;;;;;;;7.83;62.28;100285.09;10431536;28;20495;-82
2024/03/19 22:58:28;;;;;;;6.18;1.98;;;;;;;7.72;62.40;100288.13;10399007;28;20052;-82
2024/03/19 23:03:29;;;;;;;3.53;1.88;;;;;;;7.62;62.35;100292.03;10430033;28;20063;-81
2024/03/19 23:08:30;;;;;;;6.57;1.98;;;;;;;7.51;62.51;100283.81;10421040;28;20159;-82
2024/03/19 23:13:35;;;;;;;6.38;2.45;;;;;;;7.54;62.48;100283.72;10414219;28;20068;-80
2024/03/19 23:18:36;;;;;;;8.57;2.20;;;;;;;7.51;62.47;100283.00;10415236;28;20076;-80
2024/03/19 23:23:37;;;;;;;8.75;3.28;;;;;;;7.47;62.65;100287.47;10398555;28;20147;-80
2024/03/19 23:28:38;;;;;;;5.53;2.05;;;;;;;7.47;62.54;100281.44;10431265;28;20068;-81
2024/03/19 23:33:39;;;;;;;7.03;2.50;;;;;;;7.42;62.72;100279.00;10447977;28;20438;-79
2024/03/19 23:38:40;;;;;;;7.10;3.00;;;;;;;7.38;62.62;100287.00;10432445;28;20043;-80
2024/03/19 23:43:41;;;;;;;4.20;2.10;;;;;;;7.33;62.95;100288.94;10414079;28;20114;-80
2024/03/19 23:48:42;;;;;;;8.48;2.05;;;;;;;7.30;62.73;100289.94;10446939;28;20049;-80
2024/03/19 23:53:43;;;;;;;3.85;1.52;;;;;;;7.24;62.71;100287.56;10416462;28;20044;-80
2024/03/19 23:58:44;;;;;;;4.13;1.90;;;;;;;7.23;62.69;100287.63;10396879;28;20044;-80
